Brough, United Kingdom
Current Conditions -  °F | °C
As of 8:50 PM on Tuesday 21 Oct 2014 (Local Time) from EGNJ Reporting Station
Clear Clear  
Wind Chill: 39°   Ceiling: Unl
Heat Index: 46°   Visibility: 6mi
Dew Point: 34°   Wind: 22mph
Humidity: 62%   Direction: 290°WNW
Pressure: 29.88"   Gusts: NA
Location:  53.7°N, 0.58°W
Report Text: EGNJ 211950Z 29019KT CAVOK 08/01 Q1012
Loading
Personal Weather Stations






























Interactive Weather Map
Tropical Storm Tracking
New forecast layout! Learn more

10-Day Weather Forecast

Advertisements
Track Severe Weather on mobile